createdAt,value
2017-09-13T00:01:38.619Z,10.00
2017-09-13T00:04:05.050Z,9.90
2017-09-13T00:06:32.239Z,9.80
2017-09-13T00:08:58.552Z,9.80
2017-09-13T00:11:25.682Z,9.90
2017-09-13T00:13:52.877Z,10.00
2017-09-13T00:16:19.295Z,10.00
2017-09-13T00:18:46.319Z,10.00
2017-09-13T00:21:13.488Z,9.90
2017-09-13T00:23:39.806Z,9.90
2017-09-13T00:26:06.907Z,9.80
2017-09-13T00:28:33.230Z,9.80
2017-09-13T00:30:59.634Z,9.90
2017-09-13T00:33:26.040Z,9.90
2017-09-13T00:35:52.428Z,9.80
2017-09-13T00:38:18.753Z,9.70
2017-09-13T00:40:45.158Z,9.70
2017-09-13T00:43:11.537Z,9.80
2017-09-13T00:45:37.938Z,9.90
2017-09-13T00:48:04.289Z,9.80
2017-09-13T00:50:30.655Z,9.80
2017-09-13T00:52:57.109Z,9.90
2017-09-13T00:55:24.324Z,9.90
2017-09-13T00:57:50.768Z,9.90
2017-09-13T01:00:17.032Z,9.80
2017-09-13T01:02:44.296Z,10.00
2017-09-13T01:05:10.682Z,10.00
2017-09-13T01:07:37.039Z,10.00
2017-09-13T01:10:03.388Z,10.10
2017-09-13T01:12:30.492Z,10.10
2017-09-13T01:14:56.866Z,10.10
2017-09-13T01:17:23.330Z,10.20
2017-09-13T01:19:49.709Z,10.40
2017-09-13T01:22:15.994Z,10.30
2017-09-13T01:24:42.530Z,10.30
2017-09-13T01:27:08.826Z,10.20
2017-09-13T01:29:36.057Z,10.40
2017-09-13T01:32:02.450Z,10.40
2017-09-13T01:34:29.562Z,10.30
2017-09-13T01:36:56.013Z,10.20
2017-09-13T01:39:22.406Z,10.20
2017-09-13T01:41:48.708Z,10.40
2017-09-13T01:44:15.159Z,10.50
2017-09-13T01:46:41.680Z,10.60
2017-09-13T01:49:08.079Z,10.60
2017-09-13T01:51:34.542Z,10.60
2017-09-13T01:54:00.880Z,10.60
2017-09-13T01:56:27.319Z,10.90
2017-09-13T01:58:53.579Z,10.90
2017-09-13T02:01:19.909Z,10.90
2017-09-13T02:03:46.394Z,10.90
2017-09-13T02:06:12.688Z,10.90
2017-09-13T02:08:39.091Z,11.00
2017-09-13T02:11:05.426Z,11.00
2017-09-13T02:13:31.815Z,11.00
2017-09-13T02:15:58.260Z,11.00
2017-09-13T02:18:25.716Z,10.90
2017-09-13T02:20:52.049Z,10.90
2017-09-13T02:23:18.512Z,10.90
2017-09-13T02:25:44.868Z,11.10
2017-09-13T02:28:11.324Z,11.00
2017-09-13T02:30:37.798Z,11.10
2017-09-13T02:33:04.238Z,11.00
2017-09-13T02:35:30.750Z,11.00
2017-09-13T02:37:57.172Z,10.90
2017-09-13T02:40:23.596Z,11.00
2017-09-13T02:42:50.004Z,10.90
2017-09-13T02:45:16.329Z,11.00
2017-09-13T02:47:42.849Z,11.00
2017-09-13T02:50:09.273Z,11.10
2017-09-13T02:52:35.687Z,11.10
2017-09-13T02:55:02.016Z,11.10
2017-09-13T02:57:28.427Z,11.10
2017-09-13T02:59:54.834Z,11.10
2017-09-13T03:02:21.233Z,11.10
2017-09-13T03:04:47.670Z,11.10
2017-09-13T03:07:14.129Z,11.10
2017-09-13T03:09:41.379Z,11.10
2017-09-13T03:12:07.768Z,11.10
2017-09-13T03:14:34.354Z,11.10
2017-09-13T03:17:01.526Z,11.10
2017-09-13T03:19:28.440Z,11.10
2017-09-13T03:21:54.850Z,11.10
2017-09-13T03:24:22.197Z,11.10
2017-09-13T03:26:48.623Z,11.10
2017-09-13T03:29:15.132Z,11.20
2017-09-13T03:31:41.529Z,11.20
2017-09-13T03:34:07.955Z,11.20
2017-09-13T03:36:34.336Z,11.10
2017-09-13T03:39:00.864Z,11.10
2017-09-13T03:41:27.329Z,11.10
2017-09-13T03:43:53.710Z,11.10
2017-09-13T03:46:20.133Z,11.00
2017-09-13T03:48:46.530Z,11.00
2017-09-13T03:51:13.037Z,11.00
2017-09-13T03:53:40.214Z,11.00
2017-09-13T03:56:06.738Z,11.00
2017-09-13T03:58:33.094Z,11.10
2017-09-13T04:00:59.509Z,11.10
2017-09-13T04:03:25.848Z,11.00
2017-09-13T04:05:52.193Z,11.10
2017-09-13T04:08:18.648Z,11.00
2017-09-13T04:10:44.959Z,10.90
2017-09-13T04:13:11.329Z,10.80
2017-09-13T04:15:37.636Z,10.80
2017-09-13T04:18:04.147Z,10.70
2017-09-13T04:20:30.490Z,10.80
2017-09-13T04:22:56.917Z,10.80
2017-09-13T04:25:23.383Z,10.90
2017-09-13T04:27:50.370Z,11.00
2017-09-13T04:30:17.404Z,10.90
2017-09-13T04:32:43.753Z,10.90
2017-09-13T04:35:10.834Z,11.10
2017-09-13T04:37:37.923Z,10.90
2017-09-13T04:40:04.269Z,10.90
2017-09-13T04:42:31.381Z,10.90
2017-09-13T04:44:57.755Z,10.90
2017-09-13T04:47:24.839Z,11.10
2017-09-13T04:49:51.232Z,11.10
2017-09-13T04:52:17.682Z,11.10
2017-09-13T04:54:44.250Z,11.10
2017-09-13T04:57:10.706Z,11.10
2017-09-13T04:59:37.081Z,11.10
2017-09-13T05:02:03.565Z,11.20
2017-09-13T05:04:29.995Z,11.20
2017-09-13T05:06:56.377Z,11.20
2017-09-13T05:09:22.740Z,11.20
2017-09-13T05:11:49.139Z,11.30
2017-09-13T05:14:15.718Z,11.20
2017-09-13T05:16:42.233Z,11.00
2017-09-13T05:19:08.612Z,10.90
2017-09-13T05:21:34.968Z,10.90
2017-09-13T05:24:01.306Z,10.80
2017-09-13T05:26:27.746Z,10.80
2017-09-13T05:28:54.401Z,10.90
2017-09-13T05:31:22.929Z,10.90
2017-09-13T05:33:49.299Z,10.90
2017-09-13T05:36:15.829Z,10.90
2017-09-13T05:38:42.130Z,10.90
2017-09-13T05:41:08.592Z,11.00
2017-09-13T05:43:34.937Z,11.00
2017-09-13T05:46:01.381Z,11.00
2017-09-13T05:48:27.825Z,11.10
2017-09-13T05:50:54.462Z,11.20
2017-09-13T05:53:20.848Z,11.20
2017-09-13T05:55:47.385Z,11.20
2017-09-13T05:58:13.796Z,10.90
2017-09-13T06:00:40.220Z,10.70
2017-09-13T06:03:06.724Z,10.60
2017-09-13T06:05:33.148Z,10.60
2017-09-13T06:07:59.554Z,10.70
2017-09-13T06:10:26.780Z,10.60
2017-09-13T06:12:53.180Z,10.60
2017-09-13T06:15:19.647Z,10.40
2017-09-13T06:17:46.177Z,10.30
2017-09-13T06:20:12.498Z,10.30
2017-09-13T06:22:38.932Z,10.30
2017-09-13T06:25:05.412Z,10.30
2017-09-13T06:27:31.829Z,10.40
2017-09-13T06:29:58.156Z,10.40
2017-09-13T06:32:24.592Z,10.40
2017-09-13T06:34:51.124Z,10.40
2017-09-13T06:37:17.758Z,10.40
2017-09-13T06:39:44.151Z,10.40
2017-09-13T06:42:10.442Z,10.40
2017-09-13T06:44:36.883Z,10.60
2017-09-13T06:47:03.247Z,10.60
2017-09-13T06:49:29.805Z,10.50
2017-09-13T06:51:56.182Z,10.40
2017-09-13T06:54:22.602Z,10.30
2017-09-13T06:56:49.037Z,10.30
2017-09-13T06:59:15.456Z,10.40
2017-09-13T07:01:41.896Z,10.40
2017-09-13T07:04:08.370Z,10.50
2017-09-13T07:06:34.752Z,10.50
2017-09-13T07:09:01.948Z,10.50
2017-09-13T07:11:28.311Z,10.50
2017-09-13T07:13:54.646Z,10.60
2017-09-13T07:16:21.236Z,10.50
2017-09-13T07:18:47.745Z,10.60
2017-09-13T07:21:14.104Z,10.60
2017-09-13T07:23:40.533Z,10.50
2017-09-13T07:26:06.942Z,10.50
2017-09-13T07:28:33.327Z,10.60
2017-09-13T07:30:59.742Z,10.60
2017-09-13T07:33:26.105Z,10.60
2017-09-13T07:35:53.286Z,10.60
2017-09-13T07:38:19.830Z,10.50
2017-09-13T07:40:46.140Z,10.60
2017-09-13T07:43:12.529Z,10.50
2017-09-13T07:45:38.854Z,10.50
2017-09-13T07:48:06.112Z,10.60
2017-09-13T07:50:33.282Z,10.60
2017-09-13T07:52:59.679Z,10.60
2017-09-13T07:55:26.923Z,10.70
2017-09-13T07:57:53.448Z,10.70
2017-09-13T08:00:19.896Z,10.70
2017-09-13T08:02:46.339Z,10.70
2017-09-13T08:05:12.727Z,10.80
2017-09-13T08:07:39.319Z,10.70
2017-09-13T08:10:06.425Z,10.70
2017-09-13T08:12:32.802Z,10.70
2017-09-13T08:14:59.415Z,10.70
2017-09-13T08:17:25.798Z,10.70
2017-09-13T08:19:52.127Z,10.70
2017-09-13T08:22:18.551Z,10.80
2017-09-13T08:24:45.034Z,10.80
2017-09-13T08:27:11.560Z,11.00
2017-09-13T08:29:38.200Z,10.90
2017-09-13T08:32:04.654Z,10.90
2017-09-13T08:34:31.468Z,11.00
2017-09-13T08:36:58.095Z,11.10
2017-09-13T08:39:24.443Z,11.10
2017-09-13T08:41:50.804Z,11.10
2017-09-13T08:44:17.151Z,11.10
2017-09-13T08:46:43.562Z,11.10
2017-09-13T08:49:09.858Z,11.20
2017-09-13T08:51:36.308Z,11.20
2017-09-13T08:54:02.702Z,11.20
2017-09-13T08:56:29.049Z,11.20
2017-09-13T08:58:55.618Z,11.20
2017-09-13T09:01:22.078Z,11.30
2017-09-13T09:03:48.546Z,11.40
2017-09-13T09:06:15.164Z,11.50
2017-09-13T09:08:41.592Z,11.70
2017-09-13T09:11:08.043Z,11.70
2017-09-13T09:13:34.453Z,11.70
2017-09-13T09:16:00.901Z,11.80
2017-09-13T09:18:28.020Z,11.90
2017-09-13T09:20:54.394Z,12.00
2017-09-13T09:23:21.062Z,12.10
2017-09-13T09:25:47.485Z,12.00
2017-09-13T09:28:13.878Z,12.00
2017-09-13T09:30:40.329Z,12.00
2017-09-13T09:33:06.755Z,12.10
2017-09-13T09:35:34.031Z,12.40
2017-09-13T09:38:00.455Z,12.40
2017-09-13T09:40:27.829Z,12.60
2017-09-13T09:42:54.344Z,12.60
2017-09-13T09:45:21.010Z,12.80
2017-09-13T09:47:47.534Z,13.10
2017-09-13T09:50:14.011Z,13.50
2017-09-13T09:52:40.443Z,13.80
2017-09-13T09:55:06.822Z,14.10
2017-09-13T09:57:34.896Z,14.20
2017-09-13T10:00:01.410Z,14.20
2017-09-13T10:02:28.818Z,15.20
2017-09-13T10:04:56.025Z,15.60
2017-09-13T10:07:23.347Z,16.10
2017-09-13T10:09:49.744Z,16.10
2017-09-13T10:12:16.378Z,16.00
2017-09-13T10:14:42.763Z,15.90
2017-09-13T10:17:09.221Z,16.10
2017-09-13T10:19:35.598Z,16.30
2017-09-13T10:22:01.956Z,16.30
2017-09-13T10:24:28.293Z,16.20
2017-09-13T10:26:54.758Z,16.20
2017-09-13T10:29:21.167Z,16.10
2017-09-13T10:31:48.434Z,16.30
2017-09-13T10:34:14.974Z,15.40
2017-09-13T10:36:41.398Z,14.70
2017-09-13T10:39:07.843Z,14.80
2017-09-13T10:41:34.921Z,15.00
2017-09-13T10:44:01.438Z,15.00
2017-09-13T10:46:29.091Z,14.60
2017-09-13T10:48:56.185Z,14.60
2017-09-13T10:51:22.632Z,14.60
2017-09-13T10:53:49.096Z,14.50
2017-09-13T10:56:15.613Z,14.30
2017-09-13T10:58:42.025Z,14.20
2017-09-13T11:01:08.462Z,14.00
2017-09-13T11:03:34.897Z,14.10
2017-09-13T11:06:01.252Z,13.90
2017-09-13T11:08:27.693Z,14.00
2017-09-13T11:10:53.985Z,13.90
2017-09-13T11:13:20.440Z,14.10
2017-09-13T11:15:46.890Z,14.20
2017-09-13T11:18:13.476Z,14.10
2017-09-13T11:20:39.900Z,13.90
2017-09-13T11:23:06.247Z,13.80
2017-09-13T11:25:32.646Z,13.90
2017-09-13T11:27:59.028Z,13.90
2017-09-13T11:30:25.418Z,14.00
2017-09-13T11:32:52.557Z,13.50
2017-09-13T11:35:20.279Z,13.50
2017-09-13T11:37:46.856Z,13.40
2017-09-13T11:40:13.372Z,13.40
2017-09-13T11:42:39.753Z,13.70
2017-09-13T11:45:06.136Z,14.10
2017-09-13T11:47:32.628Z,14.30
2017-09-13T11:49:59.066Z,14.30
2017-09-13T11:52:25.643Z,14.10
2017-09-13T11:54:52.108Z,14.00
2017-09-13T11:57:19.373Z,14.00
2017-09-13T11:59:45.830Z,14.00
2017-09-13T12:02:12.198Z,14.10
2017-09-13T12:04:38.777Z,14.10
2017-09-13T12:07:06.009Z,14.10
2017-09-13T12:09:33.125Z,14.30
2017-09-13T12:11:59.607Z,14.20
2017-09-13T12:14:25.985Z,14.30
2017-09-13T12:16:52.330Z,14.30
2017-09-13T12:19:18.911Z,14.20
2017-09-13T12:21:45.412Z,14.30
2017-09-13T12:24:11.880Z,14.20
2017-09-13T12:26:38.454Z,14.00
2017-09-13T12:29:04.820Z,13.90
2017-09-13T12:31:31.240Z,13.70
2017-09-13T12:33:57.604Z,13.60
2017-09-13T12:36:24.021Z,13.50
2017-09-13T12:38:50.365Z,13.50
2017-09-13T12:41:17.617Z,13.50
2017-09-13T12:43:44.748Z,13.40
2017-09-13T12:46:11.224Z,13.50
2017-09-13T12:48:37.623Z,13.50
2017-09-13T12:51:04.064Z,13.60
2017-09-13T12:53:30.503Z,14.00
2017-09-13T12:55:57.801Z,14.40
2017-09-13T12:58:24.184Z,14.70
2017-09-13T13:00:50.632Z,14.80
2017-09-13T13:03:17.750Z,15.30
2017-09-13T13:05:44.169Z,15.30
2017-09-13T13:08:10.577Z,15.60
2017-09-13T13:10:36.891Z,15.60
2017-09-13T13:13:03.381Z,15.30
2017-09-13T13:15:29.788Z,15.20
2017-09-13T13:17:56.235Z,15.10
2017-09-13T13:20:23.236Z,15.20
2017-09-13T13:22:50.323Z,15.00
2017-09-13T13:25:16.801Z,15.00
2017-09-13T13:27:43.400Z,15.10
2017-09-13T13:30:09.875Z,15.00
2017-09-13T13:32:36.220Z,15.00
2017-09-13T13:35:03.374Z,15.00
2017-09-13T13:37:31.360Z,15.10
2017-09-13T13:39:58.044Z,15.10
2017-09-13T13:42:24.425Z,15.20
2017-09-13T13:44:50.889Z,15.20
2017-09-13T13:47:17.588Z,15.10
2017-09-13T13:49:44.737Z,15.10
2017-09-13T13:52:11.747Z,15.00
2017-09-13T13:54:38.193Z,14.90
2017-09-13T13:57:04.680Z,14.90
2017-09-13T13:59:31.233Z,14.80
2017-09-13T14:01:57.759Z,14.80
2017-09-13T14:04:24.247Z,14.80
2017-09-13T14:06:50.807Z,14.80
2017-09-13T14:09:17.971Z,15.30
2017-09-13T14:11:44.310Z,15.30
2017-09-13T14:14:10.709Z,15.50
2017-09-13T14:16:37.833Z,15.50
2017-09-13T14:19:04.565Z,15.50
2017-09-13T14:21:30.951Z,15.40
2017-09-13T14:23:57.450Z,15.30
2017-09-13T14:26:23.860Z,15.50
2017-09-13T14:28:50.385Z,15.70
2017-09-13T14:31:16.770Z,16.00
2017-09-13T14:33:43.191Z,15.80
2017-09-13T14:36:09.686Z,15.70
2017-09-13T14:38:36.175Z,15.80
2017-09-13T14:41:03.285Z,15.60
2017-09-13T14:43:29.681Z,15.50
2017-09-13T14:45:56.112Z,15.60
2017-09-13T14:48:22.542Z,15.60
2017-09-13T14:50:48.842Z,15.80
2017-09-13T14:53:15.185Z,15.90
2017-09-13T14:55:41.544Z,15.90
2017-09-13T14:58:07.949Z,15.90
2017-09-13T15:00:35.217Z,15.90
2017-09-13T15:03:02.367Z,15.80
2017-09-13T15:05:29.657Z,15.80
2017-09-13T15:07:56.691Z,15.80
2017-09-13T15:10:23.667Z,15.70
2017-09-13T15:12:50.056Z,15.80
2017-09-13T15:15:16.546Z,16.10
2017-09-13T15:17:43.809Z,16.30
2017-09-13T15:20:11.624Z,16.50
2017-09-13T15:22:38.897Z,16.60
2017-09-13T15:25:06.346Z,16.50
2017-09-13T15:27:32.795Z,16.60
2017-09-13T15:29:59.153Z,16.40
2017-09-13T15:32:25.679Z,16.30
2017-09-13T15:34:52.128Z,16.10
2017-09-13T15:37:18.630Z,15.90
2017-09-13T15:39:45.074Z,15.70
2017-09-13T15:42:11.558Z,15.60
2017-09-13T15:44:38.738Z,15.40
2017-09-13T15:47:05.094Z,15.40
2017-09-13T15:49:31.605Z,15.30
2017-09-13T15:51:58.101Z,15.40
2017-09-13T15:54:25.392Z,15.30
2017-09-13T15:56:51.878Z,15.30
2017-09-13T15:59:18.366Z,15.40
2017-09-13T16:01:44.746Z,15.40
2017-09-13T16:04:11.250Z,15.40
2017-09-13T16:06:37.657Z,15.20
2017-09-13T16:09:04.285Z,15.00
2017-09-13T16:11:30.659Z,14.90
2017-09-13T16:13:57.165Z,14.90
2017-09-13T16:16:23.581Z,14.90
2017-09-13T16:18:50.028Z,14.90
2017-09-13T16:21:16.454Z,14.80
2017-09-13T16:23:43.720Z,14.70
2017-09-13T16:26:10.201Z,14.60
2017-09-13T16:28:36.626Z,14.60
2017-09-13T16:31:03.203Z,14.60
2017-09-13T16:33:30.458Z,14.50
2017-09-13T16:35:57.111Z,14.40
2017-09-13T16:38:23.582Z,14.40
2017-09-13T16:40:50.082Z,14.40
2017-09-13T16:43:16.613Z,14.50
2017-09-13T16:45:43.058Z,14.50
2017-09-13T16:48:09.430Z,14.50
2017-09-13T16:50:35.803Z,14.30
2017-09-13T16:53:02.224Z,14.20
2017-09-13T16:55:28.678Z,14.30
2017-09-13T16:57:55.102Z,14.30
2017-09-13T17:00:22.235Z,14.30
2017-09-13T17:02:49.524Z,14.10
2017-09-13T17:05:16.060Z,14.10
2017-09-13T17:07:43.048Z,14.10
2017-09-13T17:10:09.523Z,14.10
2017-09-13T17:12:35.867Z,13.90
2017-09-13T17:15:02.253Z,13.90
2017-09-13T17:17:28.601Z,13.80
2017-09-13T17:19:54.956Z,13.70
2017-09-13T17:22:21.436Z,14.00
2017-09-13T17:24:48.257Z,14.00
2017-09-13T17:27:14.708Z,14.10
2017-09-13T17:29:41.900Z,14.30
2017-09-13T17:32:08.715Z,14.30
2017-09-13T17:34:35.180Z,14.20
2017-09-13T17:37:01.753Z,14.30
2017-09-13T17:39:28.301Z,14.20
2017-09-13T17:41:54.813Z,14.10
2017-09-13T17:44:21.290Z,14.00
2017-09-13T17:46:47.819Z,13.90
2017-09-13T17:49:15.230Z,14.00
2017-09-13T17:51:42.379Z,13.90
2017-09-13T17:54:09.703Z,13.90
2017-09-13T17:56:36.133Z,14.00
2017-09-13T17:59:02.672Z,14.10
2017-09-13T18:01:29.091Z,14.10
2017-09-13T18:03:55.720Z,14.20
2017-09-13T18:06:22.244Z,14.30
2017-09-13T18:08:48.683Z,14.40
2017-09-13T18:11:15.079Z,14.40
2017-09-13T18:13:41.392Z,14.30
2017-09-13T18:16:08.719Z,14.20
2017-09-13T18:18:35.133Z,14.20
2017-09-13T18:21:01.584Z,14.30
2017-09-13T18:23:28.021Z,14.30
2017-09-13T18:25:55.142Z,14.20
2017-09-13T18:28:21.875Z,14.20
2017-09-13T18:30:48.278Z,14.10
2017-09-13T18:33:15.375Z,14.20
2017-09-13T18:35:42.286Z,14.20
2017-09-13T18:38:09.024Z,14.10
2017-09-13T18:40:36.143Z,14.10
2017-09-13T18:43:02.900Z,14.10
2017-09-13T18:45:30.734Z,13.90
2017-09-13T18:47:57.115Z,13.90
2017-09-13T18:50:24.165Z,13.90
2017-09-13T18:52:50.610Z,13.80
2017-09-13T18:55:17.002Z,13.80
2017-09-13T18:57:43.520Z,13.80
2017-09-13T19:00:10.071Z,13.80
2017-09-13T19:02:36.680Z,13.70
2017-09-13T19:05:03.131Z,13.70
2017-09-13T19:07:29.656Z,13.80
2017-09-13T19:09:56.125Z,13.70
2017-09-13T19:12:22.507Z,13.50
2017-09-13T19:14:48.979Z,13.30
2017-09-13T19:17:15.515Z,13.10
2017-09-13T19:19:41.919Z,13.00
2017-09-13T19:22:08.288Z,13.00
2017-09-13T19:24:34.808Z,13.00
2017-09-13T19:27:01.264Z,12.90
2017-09-13T19:29:27.790Z,12.90
2017-09-13T19:31:54.397Z,13.00
2017-09-13T19:34:20.865Z,13.00
2017-09-13T19:36:47.447Z,12.90
2017-09-13T19:39:13.950Z,13.00
2017-09-13T19:41:41.144Z,13.00
2017-09-13T19:44:07.603Z,13.00
2017-09-13T19:46:34.099Z,12.90
2017-09-13T19:49:00.601Z,12.90
2017-09-13T19:51:27.750Z,12.90
2017-09-13T19:53:54.256Z,12.90
2017-09-13T19:56:20.688Z,12.80
2017-09-13T19:58:47.162Z,12.70
2017-09-13T20:01:13.651Z,12.70
2017-09-13T20:03:40.104Z,12.70
2017-09-13T20:06:06.561Z,12.60
2017-09-13T20:08:32.920Z,12.70
2017-09-13T20:10:59.387Z,12.70
2017-09-13T20:13:25.833Z,12.70
2017-09-13T20:15:52.228Z,12.60
2017-09-13T20:18:20.461Z,12.50
2017-09-13T20:20:46.841Z,12.30
2017-09-13T20:23:13.198Z,12.20
2017-09-13T20:25:39.627Z,12.10
2017-09-13T20:28:06.068Z,12.10
2017-09-13T20:30:32.551Z,12.00
2017-09-13T20:32:59.036Z,11.90
2017-09-13T20:35:25.620Z,11.90
2017-09-13T20:37:52.086Z,11.90
2017-09-13T20:40:18.462Z,11.80
2017-09-13T20:42:44.872Z,11.70
2017-09-13T20:45:11.319Z,11.60
2017-09-13T20:47:37.846Z,11.50
2017-09-13T20:50:04.291Z,11.50
2017-09-13T20:52:30.810Z,11.50
2017-09-13T20:54:57.208Z,11.40
2017-09-13T20:57:23.711Z,11.40
2017-09-13T20:59:50.128Z,11.40
2017-09-13T21:02:16.528Z,11.30
2017-09-13T21:04:42.897Z,11.30
2017-09-13T21:07:09.159Z,11.30
2017-09-13T21:09:35.637Z,11.20
2017-09-13T21:12:02.019Z,11.20
2017-09-13T21:14:29.161Z,11.20
2017-09-13T21:16:55.601Z,11.10
2017-09-13T21:19:23.540Z,11.10
2017-09-13T21:21:49.993Z,11.10
2017-09-13T21:24:16.535Z,11.10
2017-09-13T21:26:43.039Z,11.00
2017-09-13T21:29:09.446Z,11.00
2017-09-13T21:31:35.809Z,11.10
2017-09-13T21:34:02.217Z,11.00
2017-09-13T21:36:28.793Z,10.90
2017-09-13T21:38:55.216Z,10.80
2017-09-13T21:41:21.604Z,10.80
2017-09-13T21:43:48.067Z,10.70
2017-09-13T21:46:14.425Z,10.80
2017-09-13T21:48:40.870Z,10.70
2017-09-13T21:51:08.080Z,10.60
2017-09-13T21:53:34.469Z,10.60
2017-09-13T21:56:01.002Z,10.60
2017-09-13T21:58:27.471Z,10.60
2017-09-13T22:00:53.787Z,10.60
2017-09-13T22:03:20.191Z,10.60
2017-09-13T22:05:47.340Z,10.50
2017-09-13T22:08:13.808Z,10.50
2017-09-13T22:10:40.863Z,10.50
2017-09-13T22:13:07.310Z,10.40
2017-09-13T22:15:33.823Z,10.40
2017-09-13T22:18:00.304Z,10.40
2017-09-13T22:20:26.694Z,10.30
2017-09-13T22:22:53.063Z,10.30
2017-09-13T22:25:19.526Z,10.30
2017-09-13T22:27:46.078Z,10.30
2017-09-13T22:30:13.174Z,10.40
2017-09-13T22:32:39.621Z,10.40
2017-09-13T22:35:06.043Z,10.40
2017-09-13T22:37:32.511Z,10.30
2017-09-13T22:39:58.981Z,10.30
2017-09-13T22:42:25.324Z,10.30
2017-09-13T22:44:51.755Z,10.30
2017-09-13T22:47:18.127Z,10.30
2017-09-13T22:49:44.546Z,10.30
2017-09-13T22:52:10.986Z,10.30
2017-09-13T22:54:37.439Z,10.40
2017-09-13T22:57:03.877Z,10.30
2017-09-13T22:59:30.982Z,10.40
2017-09-13T23:01:57.366Z,10.30
2017-09-13T23:04:23.775Z,10.30
2017-09-13T23:06:50.235Z,10.10
2017-09-13T23:09:16.609Z,10.00
2017-09-13T23:11:43.045Z,10.00
2017-09-13T23:14:09.502Z,10.00
2017-09-13T23:16:35.808Z,9.90
2017-09-13T23:19:02.300Z,9.80
2017-09-13T23:21:28.583Z,9.80
2017-09-13T23:23:55.014Z,9.80
2017-09-13T23:26:21.452Z,9.80
2017-09-13T23:28:47.899Z,9.90
2017-09-13T23:31:14.200Z,9.90
2017-09-13T23:33:40.673Z,9.90
2017-09-13T23:36:07.039Z,10.00
2017-09-13T23:38:33.469Z,10.00
2017-09-13T23:40:59.754Z,10.00
2017-09-13T23:43:26.115Z,10.00
2017-09-13T23:45:52.538Z,10.20
2017-09-13T23:48:18.904Z,10.10
2017-09-13T23:50:45.257Z,10.10
2017-09-13T23:53:12.505Z,10.10
2017-09-13T23:55:39.716Z,10.20
2017-09-13T23:58:06.074Z,10.20
